createdAt,value
2019-02-26T00:01:19.193Z,16.53
2019-02-26T00:03:51.765Z,16.03
2019-02-26T00:06:25.488Z,17.07
2019-02-26T00:08:59.554Z,16.40
2019-02-26T00:11:33.314Z,15.83
2019-02-26T00:14:06.257Z,17.20
2019-02-26T00:16:39.996Z,16.20
2019-02-26T00:19:14.379Z,16.20
2019-02-26T00:21:47.927Z,16.53
2019-02-26T00:24:20.419Z,17.17
2019-02-26T00:26:52.817Z,17.27
2019-02-26T00:29:25.433Z,15.43
2019-02-26T00:31:58.859Z,16.30
2019-02-26T00:34:32.391Z,16.20
2019-02-26T00:37:06.324Z,16.23
2019-02-26T00:39:39.353Z,16.67
2019-02-26T00:42:11.858Z,15.83
2019-02-26T00:44:43.956Z,16.00
2019-02-26T00:47:16.237Z,16.53
2019-02-26T00:49:50.619Z,15.93
2019-02-26T00:52:22.880Z,16.27
2019-02-26T00:54:57.602Z,16.90
2019-02-26T00:57:31.186Z,16.40
2019-02-26T01:00:05.349Z,16.47
2019-02-26T01:02:39.515Z,16.60
2019-02-26T01:05:15.531Z,16.73
2019-02-26T01:07:49.423Z,15.47
2019-02-26T01:10:23.470Z,16.63
2019-02-26T01:12:56.496Z,17.03
2019-02-26T01:15:29.460Z,15.83
2019-02-26T01:18:03.190Z,16.03
2019-02-26T01:20:35.834Z,16.57
2019-02-26T01:23:08.077Z,16.27
2019-02-26T01:25:40.663Z,16.10
2019-02-26T01:28:16.062Z,16.87
2019-02-26T01:30:48.917Z,16.30
2019-02-26T01:33:22.338Z,16.30
2019-02-26T01:35:57.506Z,16.73
2019-02-26T01:38:29.611Z,16.13
2019-02-26T01:41:01.959Z,17.17
2019-02-26T01:43:34.195Z,16.37
2019-02-26T01:46:07.780Z,16.53
2019-02-26T01:48:41.279Z,17.00
2019-02-26T01:51:13.453Z,16.70
2019-02-26T01:53:46.927Z,16.50
2019-02-26T01:56:20.488Z,15.27
2019-02-26T01:58:56.586Z,16.57
2019-02-26T02:01:26.799Z,16.53
2019-02-26T02:03:59.206Z,17.63
2019-02-26T02:06:33.108Z,17.13
2019-02-26T02:09:09.314Z,16.83
2019-02-26T02:11:40.729Z,16.93
2019-02-26T02:14:14.864Z,16.90
2019-02-26T02:16:46.926Z,17.07
2019-02-26T02:19:20.864Z,16.40
2019-02-26T02:21:54.311Z,17.33
2019-02-26T02:24:27.511Z,17.70
2019-02-26T02:27:00.358Z,17.20
2019-02-26T02:29:32.635Z,17.47
2019-02-26T02:32:07.128Z,18.07
2019-02-26T02:34:40.130Z,17.83
2019-02-26T02:37:15.338Z,17.33
2019-02-26T02:39:47.933Z,18.53
2019-02-26T02:42:22.009Z,15.90
2019-02-26T02:44:54.209Z,18.67
2019-02-26T02:47:28.564Z,18.37
2019-02-26T02:50:00.367Z,16.90
2019-02-26T02:52:35.123Z,18.10
2019-02-26T02:55:09.890Z,17.47
2019-02-26T02:57:41.463Z,17.33
2019-02-26T03:00:15.056Z,17.47
2019-02-26T03:02:50.018Z,18.13
2019-02-26T03:05:21.734Z,19.67
2019-02-26T03:07:56.270Z,18.47
2019-02-26T03:10:30.785Z,18.90
2019-02-26T03:13:02.953Z,18.53
2019-02-26T03:15:35.853Z,18.20
2019-02-26T03:18:09.896Z,19.53
2019-02-26T03:20:42.336Z,18.60
2019-02-26T03:23:18.979Z,19.63
2019-02-26T03:25:50.500Z,20.27
2019-02-26T03:28:22.758Z,20.17
2019-02-26T03:30:54.959Z,20.23
2019-02-26T03:33:27.049Z,19.77
2019-02-26T03:35:59.928Z,19.47
2019-02-26T03:38:32.050Z,20.30
2019-02-26T03:41:04.437Z,19.50
2019-02-26T03:43:39.232Z,18.03
2019-02-26T03:46:10.611Z,20.10
2019-02-26T03:48:42.746Z,20.20
2019-02-26T03:51:17.182Z,19.53
2019-02-26T03:53:49.079Z,20.53
2019-02-26T03:56:21.848Z,20.57
2019-02-26T03:58:56.982Z,19.93
2019-02-26T04:01:28.531Z,19.43
2019-02-26T04:04:02.529Z,21.73
2019-02-26T04:06:36.578Z,19.43
2019-02-26T04:09:10.886Z,20.93
2019-02-26T04:11:45.509Z,20.93
2019-02-26T04:14:18.137Z,20.97
2019-02-26T04:16:51.307Z,21.33
2019-02-26T04:19:26.095Z,21.07
2019-02-26T04:22:26.359Z,20.70
2019-02-26T04:25:06.282Z,21.17
2019-02-26T04:28:10.927Z,21.30
2019-02-26T04:31:18.239Z,20.53
2019-02-26T04:34:27.878Z,21.53
2019-02-26T04:37:38.531Z,21.87
2019-02-26T04:40:55.405Z,21.43
2019-02-26T04:44:01.235Z,22.93
2019-02-26T04:47:05.895Z,22.80
2019-02-26T04:49:40.218Z,21.90
2019-02-26T04:52:14.307Z,22.13
2019-02-26T04:54:45.882Z,21.87
2019-02-26T04:57:18.131Z,22.87
2019-02-26T04:59:50.422Z,23.83
2019-02-26T05:02:22.820Z,23.03
2019-02-26T05:04:55.449Z,23.13
2019-02-26T05:07:27.835Z,22.67
2019-02-26T05:10:02.284Z,22.70
2019-02-26T05:12:36.692Z,20.90
2019-02-26T05:15:11.608Z,23.50
2019-02-26T05:17:42.162Z,22.30
2019-02-26T05:20:16.499Z,23.80
2019-02-26T05:22:52.038Z,23.43
2019-02-26T05:25:24.952Z,22.57
2019-02-26T05:27:57.130Z,22.93
2019-02-26T05:30:29.628Z,23.33
2019-02-26T05:33:02.931Z,22.83
2019-02-26T05:35:37.820Z,22.77
2019-02-26T05:38:09.975Z,23.93
2019-02-26T05:40:42.754Z,24.93
2019-02-26T05:43:16.247Z,24.27
2019-02-26T05:45:49.044Z,22.37
2019-02-26T05:48:23.809Z,22.93
2019-02-26T05:50:57.556Z,24.97
2019-02-26T05:53:30.529Z,18.53
2019-02-26T05:56:03.031Z,22.40
2019-02-26T05:58:36.298Z,25.63
2019-02-26T06:01:09.514Z,23.73
2019-02-26T06:03:43.678Z,25.50
2019-02-26T06:06:15.745Z,24.43
2019-02-26T06:08:47.985Z,23.33
2019-02-26T06:11:21.712Z,24.27
2019-02-26T06:13:56.315Z,24.70
2019-02-26T06:16:28.941Z,25.90
2019-02-26T06:19:02.843Z,26.03
2019-02-26T06:21:39.640Z,25.93
2019-02-26T06:24:09.247Z,25.43
2019-02-26T06:26:43.142Z,24.43
2019-02-26T06:29:20.003Z,25.50
2019-02-26T06:31:50.077Z,25.23
2019-02-26T06:34:22.470Z,24.70
2019-02-26T06:37:13.941Z,24.93
2019-02-26T06:39:50.601Z,25.20
2019-02-26T06:42:21.445Z,24.70
2019-02-26T06:44:53.540Z,26.80
2019-02-26T06:47:28.004Z,26.03
2019-02-26T06:50:00.039Z,26.80
2019-02-26T06:52:35.167Z,26.30
2019-02-26T06:55:07.802Z,26.47
2019-02-26T06:57:41.442Z,26.53
2019-02-26T07:00:16.226Z,26.30
2019-02-26T07:02:48.154Z,27.73
2019-02-26T07:05:23.810Z,25.97
2019-02-26T07:07:56.946Z,25.73
2019-02-26T07:10:31.148Z,26.60
2019-02-26T07:13:05.021Z,27.60
2019-02-26T07:15:36.720Z,27.87
2019-02-26T07:18:10.705Z,29.17
2019-02-26T07:20:46.799Z,27.17
2019-02-26T07:23:17.111Z,26.60
2019-02-26T07:25:49.476Z,27.90
2019-02-26T07:28:22.869Z,27.27
2019-02-26T07:30:55.835Z,30.63
2019-02-26T07:33:29.844Z,27.60
2019-02-26T07:36:04.134Z,28.33
2019-02-26T07:38:41.181Z,28.87
2019-02-26T07:41:10.811Z,28.93
2019-02-26T07:43:44.610Z,28.27
2019-02-26T07:46:19.215Z,28.93
2019-02-26T07:48:54.039Z,26.97
2019-02-26T07:51:25.468Z,29.00
2019-02-26T07:53:58.316Z,28.53
2019-02-26T07:56:32.691Z,28.50
2019-02-26T07:59:09.454Z,28.07
2019-02-26T08:01:39.975Z,29.23
2019-02-26T08:04:13.520Z,28.10
2019-02-26T08:06:46.587Z,28.33
2019-02-26T08:09:20.838Z,28.63
2019-02-26T08:11:53.270Z,30.07
2019-02-26T08:14:25.732Z,29.33
2019-02-26T08:16:59.446Z,29.33
2019-02-26T08:19:31.997Z,29.63
2019-02-26T08:22:04.370Z,28.33
2019-02-26T08:24:36.709Z,30.83
2019-02-26T08:27:11.036Z,30.13
2019-02-26T08:29:43.379Z,30.00
2019-02-26T08:32:18.185Z,30.43
2019-02-26T08:34:49.994Z,29.47
2019-02-26T08:37:22.222Z,29.03
2019-02-26T08:39:57.424Z,30.00
2019-02-26T08:42:28.677Z,29.87
2019-02-26T08:45:01.077Z,31.47
2019-02-26T08:47:33.517Z,30.03
2019-02-26T08:50:07.324Z,31.33
2019-02-26T08:52:40.766Z,30.83
2019-02-26T08:55:15.541Z,30.73
2019-02-26T08:57:51.296Z,29.97
2019-02-26T09:00:22.035Z,29.60
2019-02-26T09:02:56.721Z,31.07
2019-02-26T09:05:31.537Z,32.77
2019-02-26T09:08:03.272Z,32.03
2019-02-26T09:10:36.433Z,32.60
2019-02-26T09:13:11.463Z,30.33
2019-02-26T09:15:44.244Z,31.37
2019-02-26T09:18:20.289Z,31.33
2019-02-26T09:20:50.741Z,31.43
2019-02-26T09:23:23.943Z,32.17
2019-02-26T09:25:59.622Z,32.80
2019-02-26T09:28:38.193Z,32.13
2019-02-26T09:31:12.459Z,31.03
2019-02-26T09:33:46.007Z,32.77
2019-02-26T09:36:20.864Z,30.17
2019-02-26T09:38:52.317Z,32.67
2019-02-26T09:41:29.150Z,31.13
2019-02-26T09:44:03.848Z,32.47
2019-02-26T09:46:41.933Z,33.20
2019-02-26T09:49:14.785Z,32.43
2019-02-26T09:51:55.084Z,33.33
2019-02-26T09:54:28.095Z,32.40
2019-02-26T09:57:02.562Z,32.80
2019-02-26T09:59:35.924Z,32.13
2019-02-26T10:02:09.418Z,30.27
2019-02-26T10:04:42.512Z,32.63
2019-02-26T10:07:15.331Z,35.17
2019-02-26T10:09:48.477Z,33.07
2019-02-26T10:12:21.197Z,32.53
2019-02-26T10:14:54.673Z,34.13
2019-02-26T10:17:27.722Z,32.07
2019-02-26T10:20:01.769Z,32.20
2019-02-26T10:22:35.680Z,32.67
2019-02-26T10:25:08.689Z,33.47
2019-02-26T10:27:43.077Z,35.23
2019-02-26T10:30:16.236Z,33.27
2019-02-26T10:32:48.668Z,33.87
2019-02-26T10:35:29.915Z,33.50
2019-02-26T10:37:57.044Z,38.37
2019-02-26T10:40:35.409Z,31.37
2019-02-26T10:43:03.589Z,36.10
2019-02-26T10:45:38.735Z,34.03
2019-02-26T10:48:10.274Z,34.23
2019-02-26T10:50:45.801Z,33.20
2019-02-26T10:53:19.745Z,33.83
2019-02-26T10:55:51.760Z,33.90
2019-02-26T10:58:24.342Z,33.90
2019-02-26T11:00:59.411Z,34.23
2019-02-26T11:03:35.472Z,35.57
2019-02-26T11:06:07.301Z,33.23
2019-02-26T11:08:41.640Z,33.80
2019-02-26T11:11:16.055Z,34.23
2019-02-26T11:13:51.201Z,31.70
2019-02-26T11:16:25.208Z,30.60
2019-02-26T11:18:56.141Z,31.47
2019-02-26T11:21:28.729Z,33.50
2019-02-26T11:24:03.519Z,31.93
2019-02-26T11:26:37.689Z,33.73
2019-02-26T11:29:09.311Z,33.33
2019-02-26T11:31:42.531Z,33.37
2019-02-26T11:34:15.976Z,35.27
2019-02-26T11:36:48.537Z,33.43
2019-02-26T11:39:21.068Z,34.23
2019-02-26T11:41:54.566Z,34.13
2019-02-26T11:44:27.761Z,34.10
2019-02-26T11:46:59.934Z,34.70
2019-02-26T11:49:34.327Z,34.03
2019-02-26T11:52:06.578Z,40.30
2019-02-26T11:54:40.249Z,35.20
2019-02-26T11:57:15.346Z,34.20
2019-02-26T11:59:48.124Z,33.07
2019-02-26T12:02:26.650Z,34.50
2019-02-26T12:04:54.905Z,34.33
2019-02-26T12:07:28.134Z,33.90
2019-02-26T12:10:07.252Z,26.27
2019-02-26T12:12:38.193Z,33.97
2019-02-26T12:15:12.451Z,33.00
2019-02-26T12:17:49.356Z,34.20
2019-02-26T12:20:24.216Z,33.27
2019-02-26T12:22:56.577Z,33.77
2019-02-26T12:25:28.890Z,34.53
2019-02-26T12:28:02.865Z,32.33
2019-02-26T12:30:37.458Z,33.70
2019-02-26T12:33:11.938Z,33.77
2019-02-26T12:35:43.877Z,35.47
2019-02-26T12:38:20.655Z,34.43
2019-02-26T12:40:53.427Z,32.63
2019-02-26T12:43:24.974Z,31.73
2019-02-26T12:45:59.371Z,33.50
2019-02-26T12:48:31.580Z,33.53
2019-02-26T12:51:04.762Z,28.00
2019-02-26T12:53:49.038Z,30.13
2019-02-26T12:56:20.593Z,31.30
2019-02-26T12:58:54.475Z,31.07
2019-02-26T13:01:27.343Z,33.27
2019-02-26T13:03:59.525Z,34.13
2019-02-26T13:06:31.702Z,33.27
2019-02-26T13:09:05.298Z,33.33
2019-02-26T13:11:37.603Z,33.03
2019-02-26T13:14:09.917Z,33.50
2019-02-26T13:16:42.604Z,33.23
2019-02-26T13:19:21.417Z,31.93
2019-02-26T13:21:51.792Z,32.60
2019-02-26T13:24:26.466Z,34.20
2019-02-26T13:26:59.707Z,34.47
2019-02-26T13:29:32.169Z,33.17
2019-02-26T13:32:07.508Z,35.03
2019-02-26T13:34:39.012Z,32.80
2019-02-26T13:37:11.623Z,34.53
2019-02-26T13:39:45.430Z,32.60
2019-02-26T13:42:19.280Z,35.47
2019-02-26T13:44:52.076Z,34.23
2019-02-26T13:47:24.447Z,35.20
2019-02-26T13:49:57.092Z,33.83
2019-02-26T13:52:29.190Z,33.67
2019-02-26T13:55:01.740Z,36.13
2019-02-26T13:57:33.957Z,41.27
2019-02-26T14:00:07.476Z,37.23
2019-02-26T14:02:40.013Z,34.43
2019-02-26T14:05:12.404Z,34.87
2019-02-26T14:07:45.729Z,34.27
2019-02-26T14:10:18.240Z,30.70
2019-02-26T14:12:50.641Z,33.70
2019-02-26T14:15:23.196Z,34.93
2019-02-26T14:17:56.106Z,33.23
2019-02-26T14:20:28.409Z,32.50
2019-02-26T14:23:00.808Z,32.10
2019-02-26T14:25:33.081Z,32.50
2019-02-26T14:28:05.640Z,32.23
2019-02-26T14:30:37.908Z,35.23
2019-02-26T14:33:10.085Z,33.60
2019-02-26T14:35:42.763Z,32.30
2019-02-26T14:38:15.062Z,32.97
2019-02-26T14:40:47.824Z,34.17
2019-02-26T14:43:20.402Z,35.63
2019-02-26T14:45:55.056Z,33.63
2019-02-26T14:48:27.434Z,34.70
2019-02-26T14:50:59.775Z,33.53
2019-02-26T14:53:32.234Z,35.33
2019-02-26T14:56:04.844Z,36.07
2019-02-26T14:58:37.792Z,36.93
2019-02-26T15:01:10.081Z,37.30
2019-02-26T15:03:42.470Z,36.40
2019-02-26T15:06:15.668Z,37.23
2019-02-26T15:08:48.222Z,37.27
2019-02-26T15:11:20.597Z,38.47
2019-02-26T15:13:54.349Z,36.43
2019-02-26T15:16:26.928Z,37.50
2019-02-26T15:18:59.024Z,37.60
2019-02-26T15:21:31.577Z,37.17
2019-02-26T15:24:03.798Z,39.40
2019-02-26T15:26:36.067Z,37.87
2019-02-26T15:29:08.218Z,38.13
2019-02-26T15:31:40.823Z,39.03
2019-02-26T15:34:12.935Z,40.27
2019-02-26T15:36:45.749Z,41.13
2019-02-26T15:39:18.332Z,39.40
2019-02-26T15:41:50.700Z,41.57
2019-02-26T15:44:23.089Z,39.67
2019-02-26T15:46:55.441Z,41.23
2019-02-26T15:49:27.554Z,40.97
2019-02-26T15:52:00.184Z,39.63
2019-02-26T15:54:32.530Z,39.33
2019-02-26T15:57:04.782Z,40.10
2019-02-26T15:59:37.053Z,39.33
2019-02-26T16:02:09.557Z,38.63
2019-02-26T16:04:41.909Z,39.43
2019-02-26T16:07:14.263Z,40.73
2019-02-26T16:09:46.529Z,38.77
2019-02-26T16:12:18.799Z,39.50
2019-02-26T16:14:51.157Z,37.97
2019-02-26T16:17:23.462Z,39.87
2019-02-26T16:19:55.836Z,36.90
2019-02-26T16:22:27.937Z,38.87
2019-02-26T16:25:00.362Z,37.60
2019-02-26T16:27:37.632Z,39.60
2019-02-26T16:30:15.254Z,40.17
2019-02-26T16:32:48.875Z,41.20
2019-02-26T16:35:24.649Z,40.70
2019-02-26T16:37:55.521Z,41.47
2019-02-26T16:40:31.250Z,41.97
2019-02-26T16:43:02.200Z,41.60
2019-02-26T16:45:35.200Z,41.90
2019-02-26T16:48:07.838Z,41.70
2019-02-26T16:50:40.100Z,42.10
2019-02-26T16:53:12.376Z,41.90
2019-02-26T16:55:48.496Z,41.43
2019-02-26T16:58:18.973Z,40.60
2019-02-26T17:00:51.649Z,42.50
2019-02-26T17:03:23.997Z,41.77
2019-02-26T17:05:56.432Z,41.53
2019-02-26T17:08:28.958Z,41.40
2019-02-26T17:11:01.329Z,42.20
2019-02-26T17:13:33.785Z,42.10
2019-02-26T17:16:06.059Z,42.23
2019-02-26T17:18:40.584Z,42.80
2019-02-26T17:21:12.794Z,41.27
2019-02-26T17:23:47.125Z,43.33
2019-02-26T17:26:19.619Z,42.03
2019-02-26T17:28:51.865Z,41.33
2019-02-26T17:31:24.362Z,41.40
2019-02-26T17:33:56.665Z,43.50
2019-02-26T17:36:29.004Z,42.43
2019-02-26T17:39:01.584Z,42.27
2019-02-26T17:41:33.851Z,43.00
2019-02-26T17:44:06.150Z,42.63
2019-02-26T17:46:38.457Z,43.90
2019-02-26T17:49:10.736Z,41.17
2019-02-26T17:51:43.262Z,43.17
2019-02-26T17:54:15.736Z,43.80
2019-02-26T17:56:48.095Z,40.73
2019-02-26T17:59:20.575Z,42.70
2019-02-26T18:01:53.244Z,41.70
2019-02-26T18:04:27.428Z,42.20
2019-02-26T18:07:00.410Z,44.67
2019-02-26T18:09:34.560Z,41.27
2019-02-26T18:12:07.795Z,43.70
2019-02-26T18:14:40.242Z,43.97
2019-02-26T18:17:12.593Z,43.17
2019-02-26T18:19:49.446Z,43.33
2019-02-26T18:22:21.411Z,44.20
2019-02-26T18:24:53.564Z,45.07
2019-02-26T18:27:27.733Z,44.33
2019-02-26T18:29:59.871Z,44.60
2019-02-26T18:32:32.210Z,45.13
2019-02-26T18:35:04.906Z,44.20
2019-02-26T18:37:46.046Z,43.43
2019-02-26T18:40:11.833Z,43.80
2019-02-26T18:42:44.764Z,43.07
2019-02-26T18:45:19.105Z,44.30
2019-02-26T18:47:51.424Z,43.33
2019-02-26T18:50:25.789Z,45.30
2019-02-26T18:52:58.280Z,44.97
2019-02-26T18:55:32.548Z,43.53
2019-02-26T18:58:04.834Z,45.50
2019-02-26T19:00:37.055Z,43.57
2019-02-26T19:03:09.564Z,42.63
2019-02-26T19:05:41.738Z,42.00
2019-02-26T19:08:14.047Z,42.13
2019-02-26T19:10:46.468Z,43.57
2019-02-26T19:13:19.548Z,41.30
2019-02-26T19:15:51.883Z,42.00
2019-02-26T19:18:24.571Z,43.27
2019-02-26T19:20:56.909Z,43.73
2019-02-26T19:23:31.444Z,43.13
2019-02-26T19:26:04.053Z,44.77
2019-02-26T19:28:36.329Z,45.60
2019-02-26T19:31:09.724Z,44.07
2019-02-26T19:33:42.607Z,46.13
2019-02-26T19:36:15.193Z,44.40
2019-02-26T19:38:47.400Z,42.10
2019-02-26T19:41:19.773Z,46.43
2019-02-26T19:43:52.013Z,43.33
2019-02-26T19:46:24.494Z,44.33
2019-02-26T19:48:58.084Z,44.83
2019-02-26T19:51:30.392Z,43.70
2019-02-26T19:54:04.736Z,41.60
2019-02-26T19:56:37.942Z,43.63
2019-02-26T19:59:13.508Z,43.20
2019-02-26T20:01:45.753Z,44.53
2019-02-26T20:04:18.059Z,43.33
2019-02-26T20:06:50.393Z,44.53
2019-02-26T20:09:22.656Z,45.80
2019-02-26T20:11:56.195Z,47.07
2019-02-26T20:14:29.062Z,46.83
2019-02-26T20:17:13.653Z,47.13
2019-02-26T20:19:35.384Z,47.30
2019-02-26T20:22:07.802Z,46.70
2019-02-26T20:24:40.094Z,48.53
2019-02-26T20:27:12.419Z,47.67
2019-02-26T20:29:44.669Z,48.70
2019-02-26T20:32:16.958Z,48.77
2019-02-26T20:34:49.591Z,46.27
2019-02-26T20:37:24.215Z,47.23
2019-02-26T20:39:56.035Z,46.57
2019-02-26T20:42:28.916Z,45.90
2019-02-26T20:45:01.876Z,46.93
2019-02-26T20:47:34.174Z,47.73
2019-02-26T20:50:06.793Z,47.57
2019-02-26T20:52:39.041Z,48.00
2019-02-26T20:55:12.530Z,45.93
2019-02-26T20:57:44.802Z,46.50
2019-02-26T21:00:17.703Z,47.27
2019-02-26T21:02:50.090Z,45.60
2019-02-26T21:05:22.732Z,48.07
2019-02-26T21:07:58.016Z,46.97
2019-02-26T21:10:29.009Z,46.67
2019-02-26T21:13:01.851Z,47.30
2019-02-26T21:15:34.704Z,47.27
2019-02-26T21:18:07.176Z,47.57
2019-02-26T21:20:41.146Z,49.60
2019-02-26T21:23:14.027Z,47.20
2019-02-26T21:25:47.536Z,46.00
2019-02-26T21:28:20.542Z,50.03
2019-02-26T21:30:52.756Z,49.63
2019-02-26T21:33:25.177Z,49.73
2019-02-26T21:35:57.641Z,48.07
2019-02-26T21:38:29.901Z,50.60
2019-02-26T21:41:02.302Z,49.50
2019-02-26T21:43:35.564Z,48.57
2019-02-26T21:46:08.069Z,48.13
2019-02-26T21:48:40.453Z,49.93
2019-02-26T21:51:12.623Z,47.57
2019-02-26T21:53:46.686Z,47.70
2019-02-26T21:56:19.053Z,47.17
2019-02-26T21:58:51.284Z,49.97
2019-02-26T22:01:23.472Z,50.10
2019-02-26T22:03:55.778Z,49.17
2019-02-26T22:06:29.729Z,51.00
2019-02-26T22:09:01.989Z,49.50
2019-02-26T22:11:34.468Z,49.70
2019-02-26T22:14:06.966Z,48.20
2019-02-26T22:16:39.337Z,49.47
2019-02-26T22:19:11.859Z,48.17
2019-02-26T22:21:52.119Z,47.67
2019-02-26T22:24:24.742Z,48.47
2019-02-26T22:26:59.360Z,50.53
2019-02-26T22:29:30.887Z,47.57
2019-02-26T22:32:03.166Z,48.17
2019-02-26T22:34:35.444Z,47.67
2019-02-26T22:37:07.857Z,48.00
2019-02-26T22:39:40.380Z,46.97
2019-02-26T22:42:12.983Z,45.27
2019-02-26T22:44:45.190Z,45.67
2019-02-26T22:47:17.324Z,46.00
2019-02-26T22:49:53.803Z,45.23
2019-02-26T22:52:24.763Z,48.67
2019-02-26T22:54:56.961Z,45.07
2019-02-26T22:57:29.811Z,46.60
2019-02-26T23:00:05.397Z,47.27
2019-02-26T23:02:40.649Z,45.63
2019-02-26T23:05:11.843Z,44.20
2019-02-26T23:07:44.375Z,47.93
2019-02-26T23:10:16.709Z,48.73
2019-02-26T23:12:48.953Z,48.30
2019-02-26T23:15:21.291Z,47.73
2019-02-26T23:17:58.202Z,47.23
2019-02-26T23:20:28.016Z,47.03
2019-02-26T23:23:00.517Z,47.47
2019-02-26T23:25:33.636Z,46.20
2019-02-26T23:28:07.234Z,46.47
2019-02-26T23:30:40.079Z,48.83
2019-02-26T23:33:14.992Z,48.23
2019-02-26T23:35:47.217Z,49.13
2019-02-26T23:38:19.534Z,47.00
2019-02-26T23:40:51.824Z,48.33
2019-02-26T23:43:24.175Z,47.60
2019-02-26T23:45:57.006Z,48.13
2019-02-26T23:48:29.928Z,46.37
2019-02-26T23:51:02.118Z,47.60
2019-02-26T23:53:34.705Z,48.33
2019-02-26T23:56:06.919Z,48.57
2019-02-26T23:58:39.467Z,50.03
